Humidity-temperature Sensor

Selected Measurement Type: Air Temperature

 
Air Temperature [°C]     6 entries per hour
Showing data from 5/11/2022 (00:00:00 Z) to 5/8/2022 (00:01:00 Z)
Previous Next [ Day | 3-Days | 7-Days ]
First Last
Prev [ Day | 3-Days | 7-Days ] Next
First Last

Start Time:     :
End Time:     :     
Time (in GMT) :00 :50 :40 :30 :20 :10
Previous Next [ Day | 3-Days | 7-Days ]
First Last
Prev [ Day | 3-Days | 7-Days ] Next
First Last


123 => good data
MM => data is determined as missing
-- => data not received/configured
Back to Top Back to Top
5/11/2022 00:00 to 23:10 27.44 27.52 27.49 27.66 27.66 27.60
5/10/2022 23:00 to 22:10 27.41 27.51 27.58 27.64 27.49 27.52
5/10/2022 22:00 to 21:10 27.56 27.51 27.50 27.56 27.57 27.41
5/10/2022 21:00 to 20:10 27.56 27.58 27.69 27.57 27.64 27.56
5/10/2022 20:00 to 19:10 27.58 27.44 27.55 27.48 27.69 27.68
5/10/2022 19:00 to 18:10 27.66 27.39 27.45 27.78 27.60 27.56
5/10/2022 18:00 to 17:10 27.54 27.59 27.63 27.67 27.47 27.60
5/10/2022 17:00 to 16:10 27.66 27.58 27.47 27.50 27.54 27.52
5/10/2022 16:00 to 15:10 27.48 27.57 27.66 27.52 27.54 27.43
5/10/2022 15:00 to 14:10 27.70 27.43 27.52 27.49 27.57 27.51
5/10/2022 14:00 to 13:10 27.45 27.29 27.44 27.34 27.30 27.26
5/10/2022 13:00 to 12:10 27.25 27.25 27.28 27.46 27.17 27.28
5/10/2022 12:00 to 11:10 27.32 27.28 27.28 27.30 27.31 27.28
5/10/2022 11:00 to 10:10 27.33 27.34 27.23 27.34 27.26 27.20
5/10/2022 10:00 to 9:10 27.34 27.23 27.31 27.03 27.11 27.20
5/10/2022 09:00 to 8:10 27.28 27.26 27.32 27.26 27.32 27.40
5/10/2022 08:00 to 7:10 27.34 27.32 27.38 27.34 27.38 27.51
5/10/2022 07:00 to 6:10 27.26 27.50 27.58 27.45 27.46 27.58
5/10/2022 06:00 to 5:10 27.58 27.53 27.56 27.50 27.59 27.58
5/10/2022 05:00 to 4:10 27.55 27.63 27.57 27.52 27.51 27.66
5/10/2022 04:00 to 3:10 27.55 27.57 27.46 27.61 27.67 27.75
5/10/2022 03:00 to 2:10 27.72 27.64 27.73 27.65 27.62 27.84
5/10/2022 02:00 to 1:10 27.71 27.67 27.71 27.73 27.71 27.55
5/10/2022 01:00 to 0:10 27.66 27.68 27.66 27.66 27.68 27.60
5/10/2022 00:00 to 23:10 27.62 27.54 27.73 27.60 27.66 27.54
5/9/2022 23:00 to 22:10 27.62 27.61 27.75 27.63 27.56 27.43
5/9/2022 22:00 to 21:10 27.48 27.71 27.51 27.64 27.65 27.47
5/9/2022 21:00 to 20:10 27.60 27.73 27.50 27.64 27.54 27.63
5/9/2022 20:00 to 19:10 27.59 27.74 27.58 27.69 27.79 27.54
5/9/2022 19:00 to 18:10 27.68 27.61 27.69 27.64 27.61 27.92
5/9/2022 18:00 to 17:10 27.75 27.64 27.67 27.50 27.74 27.72
5/9/2022 17:00 to 16:10 27.87 27.66 27.52 27.48 27.52 27.68
5/9/2022 16:00 to 15:10 27.62 27.73 27.72 27.71 27.74 27.56
5/9/2022 15:00 to 14:10 27.39 27.37 27.37 27.12 27.15 27.30
5/9/2022 14:00 to 13:10 27.36 27.51 27.27 27.03 27.04 26.95
5/9/2022 13:00 to 12:10 27.02 27.43 27.62 27.49 27.39 27.44
5/9/2022 12:00 to 11:10 27.40 27.27 27.36 27.29 27.21 26.71
5/9/2022 11:00 to 10:10 26.83 26.88 26.84 26.76 26.96 27.54
5/9/2022 10:00 to 9:10 27.16 27.38 27.30 27.25 27.07 27.26
5/9/2022 09:00 to 8:10 27.32 27.15 27.26 27.39 27.19 27.15
5/9/2022 08:00 to 7:10 27.31 27.37 27.46 27.27 27.27 27.32
5/9/2022 07:00 to 6:10 27.38 27.46 27.35 27.31 27.47 27.23
5/9/2022 06:00 to 5:10 27.34 27.39 27.52 27.27 27.39 27.44
5/9/2022 05:00 to 4:10 27.32 27.38 27.52 27.38 27.45 27.45
5/9/2022 04:00 to 3:10 27.49 27.35 27.35 27.42 27.37 27.49
5/9/2022 03:00 to 2:10 27.45 27.53 27.46 27.52 27.48 27.43
5/9/2022 02:00 to 1:10 27.57 27.45 27.37 27.56 27.46 27.35
5/9/2022 01:00 to 0:10 27.56 27.38 27.51 27.36 27.57 27.43
5/9/2022 00:00 to 23:10 27.44 27.53 27.46 27.64 27.42 27.55
5/8/2022 23:00 to 22:10 27.66 27.46 27.60 27.59 27.64 27.60
5/8/2022 22:00 to 21:10 27.50 27.61 27.63 27.53 27.56 27.52
5/8/2022 21:00 to 20:10 27.56 27.60 27.72 27.56 27.67 27.65
5/8/2022 20:00 to 19:10 27.61 27.64 27.65 27.55 27.63 27.73
5/8/2022 19:00 to 18:10 27.70 27.66 27.64 27.54 27.85 27.57
5/8/2022 18:00 to 17:10 27.57 27.69 27.62 27.67 27.58 27.71
5/8/2022 17:00 to 16:10 27.67 27.74 27.79 27.79 27.79 27.69
5/8/2022 16:00 to 15:10 27.49 27.72 27.71 27.57 27.41 27.46
5/8/2022 15:00 to 14:10 27.34 27.48 27.52 27.47 27.46 27.39
5/8/2022 14:00 to 13:10 27.51 27.52 27.51 27.36 27.35 27.36
5/8/2022 13:00 to 12:10 27.45 27.25 27.32 27.38 27.40 27.43
5/8/2022 12:00 to 11:10 27.27 27.32 27.43 27.41 27.50 27.32
5/8/2022 11:00 to 10:10 27.41 27.39 27.47 27.25 27.36 27.28
5/8/2022 10:00 to 9:10 27.17 27.28 27.34 27.24 27.32 27.33
5/8/2022 09:00 to 8:10 27.33 27.43 27.29 27.35 27.28 27.55
5/8/2022 08:00 to 7:10 27.40 27.36 27.33 27.33 27.43 27.37
5/8/2022 07:00 to 6:10 27.46 27.66 27.44 27.53 27.46 27.45
5/8/2022 06:00 to 5:10 27.36 27.42 27.34 27.18 26.47 26.52
5/8/2022 05:00 to 4:10 26.13 26.47 26.70 26.87 27.02 27.21
5/8/2022 04:00 to 3:10 27.46 27.23 27.10 27.35 27.85 27.82
5/8/2022 03:00 to 2:10 27.69 27.76 27.93 27.60 27.88 27.84
5/8/2022 02:00 to 1:10 27.65 27.45 27.31 27.77 27.45 27.30
5/8/2022 01:00 to 0:10 26.96 27.16 27.45 27.12 26.71 26.61